createdAt,value
2018-10-12T00:03:09.406Z,12.67
2018-10-12T00:07:52.528Z,14.57
2018-10-12T00:12:36.593Z,14.33
2018-10-12T00:17:19.465Z,10.80
2018-10-12T00:22:03.574Z,12.77
2018-10-12T00:26:46.463Z,13.70
2018-10-12T00:31:30.592Z,10.87
2018-10-12T00:36:13.449Z,9.77
2018-10-12T00:40:59.644Z,10.43
2018-10-12T00:45:42.555Z,9.50
2018-10-12T00:50:25.413Z,10.37
2018-10-12T00:55:08.316Z,8.70
2018-10-12T00:59:51.246Z,10.13
2018-10-12T01:04:34.416Z,11.40
2018-10-12T01:09:17.248Z,13.07
2018-10-12T01:14:00.403Z,11.73
2018-10-12T01:18:43.334Z,10.50
2018-10-12T01:23:26.535Z,11.23
2018-10-12T01:28:09.516Z,11.50
2018-10-12T01:32:58.972Z,9.37
2018-10-12T01:37:42.844Z,14.03
2018-10-12T01:42:26.873Z,11.00
2018-10-12T01:47:09.879Z,10.07
2018-10-12T01:51:56.555Z,13.90
2018-10-12T01:56:39.393Z,8.77
2018-10-12T02:01:23.304Z,10.60
2018-10-12T02:06:06.258Z,11.87
2018-10-12T02:10:50.501Z,16.87
2018-10-12T02:15:36.776Z,11.80
2018-10-12T02:20:22.568Z,11.23
2018-10-12T02:25:07.409Z,14.83
2018-10-12T02:29:50.330Z,9.07
2018-10-12T02:34:33.510Z,8.73
2018-10-12T02:39:16.412Z,10.70
2018-10-12T02:43:59.550Z,9.47
2018-10-12T02:48:43.736Z,11.37
2018-10-12T02:53:26.815Z,10.40
2018-10-12T02:58:09.760Z,12.10
2018-10-12T03:02:52.787Z,12.63
2018-10-12T03:07:35.672Z,16.00
2018-10-12T03:12:19.582Z,11.67
2018-10-12T03:17:02.477Z,16.13
2018-10-12T03:21:45.611Z,13.90
2018-10-12T03:26:28.518Z,14.40
2018-10-12T03:31:15.672Z,14.07
2018-10-12T03:35:58.900Z,13.77
2018-10-12T03:40:43.739Z,14.47
2018-10-12T03:45:26.597Z,11.00
2018-10-12T03:50:10.644Z,18.43
2018-10-12T03:54:53.536Z,13.33
2018-10-12T03:59:36.401Z,12.60
2018-10-12T04:04:20.498Z,12.33
2018-10-12T04:09:03.710Z,14.73
2018-10-12T04:13:46.785Z,12.27
2018-10-12T04:18:29.653Z,14.53
2018-10-12T04:23:12.518Z,18.63
2018-10-12T04:27:55.373Z,15.80
2018-10-12T04:32:38.318Z,19.47
2018-10-12T04:37:21.181Z,19.13
2018-10-12T04:42:05.111Z,14.07
2018-10-12T04:46:48.079Z,18.87
2018-10-12T04:51:36.288Z,18.43
2018-10-12T04:56:20.321Z,20.00
2018-10-12T05:01:04.509Z,16.40
2018-10-12T05:05:55.044Z,16.00
2018-10-12T05:10:39.178Z,11.60
2018-10-12T05:15:24.248Z,14.33
2018-10-12T05:20:08.097Z,15.30
2018-10-12T05:24:51.104Z,12.80
2018-10-12T05:29:34.073Z,14.40
2018-10-12T05:34:23.708Z,14.57
2018-10-12T05:39:10.215Z,23.90
2018-10-12T05:43:53.427Z,13.80
2018-10-12T05:48:47.453Z,15.33
2018-10-12T05:53:30.966Z,15.77
2018-10-12T05:58:13.952Z,21.53
2018-10-12T06:02:56.958Z,14.83
2018-10-12T06:07:39.857Z,19.27
2018-10-12T06:12:22.856Z,15.80
2018-10-12T06:17:05.835Z,14.13
2018-10-12T06:21:49.899Z,13.93
2018-10-12T06:26:32.753Z,15.93
2018-10-12T06:31:16.708Z,12.17
2018-10-12T06:35:59.583Z,12.40
2018-10-12T06:40:43.574Z,14.67
2018-10-12T06:45:26.421Z,10.90
2018-10-12T06:50:13.120Z,11.90
2018-10-12T06:54:55.976Z,16.47
2018-10-12T06:59:39.910Z,12.97
2018-10-12T07:04:22.884Z,12.27
2018-10-12T07:09:08.905Z,14.37
2018-10-12T07:13:51.997Z,10.70
2018-10-12T07:18:34.834Z,7.83
2018-10-12T07:23:17.891Z,9.57
2018-10-12T07:28:00.754Z,10.03
2018-10-12T07:32:44.672Z,13.37
2018-10-12T07:37:27.553Z,11.03
2018-10-12T07:42:13.812Z,12.67
2018-10-12T07:46:56.713Z,11.00
2018-10-12T07:51:41.600Z,19.90
2018-10-12T07:56:24.474Z,11.30
2018-10-12T08:01:09.317Z,14.23
2018-10-12T08:05:52.200Z,9.43
2018-10-12T08:10:35.187Z,11.77
2018-10-12T08:15:18.460Z,10.07
2018-10-12T08:20:03.210Z,14.17
2018-10-12T08:24:46.069Z,10.80
2018-10-12T08:29:30.045Z,11.37
2018-10-12T08:34:13.384Z,12.17
2018-10-12T08:38:56.238Z,12.47
2018-10-12T08:43:39.207Z,12.10
2018-10-12T08:48:22.110Z,10.60
2018-10-12T08:53:05.233Z,8.67
2018-10-12T08:57:48.345Z,11.27
2018-10-12T09:02:35.101Z,8.03
2018-10-12T09:07:18.349Z,12.10
2018-10-12T09:12:01.350Z,13.60
2018-10-12T09:16:44.213Z,16.23
2018-10-12T09:21:29.350Z,13.27
2018-10-12T09:26:12.167Z,13.83
2018-10-12T09:30:56.240Z,15.93
2018-10-12T09:35:39.085Z,12.47
2018-10-12T09:40:23.002Z,21.20
2018-10-12T09:45:05.845Z,12.23
2018-10-12T09:49:48.742Z,12.97
2018-10-12T09:54:31.607Z,12.47
2018-10-12T09:59:17.891Z,17.53
2018-10-12T10:04:06.269Z,11.90
2018-10-12T10:08:50.078Z,12.97
2018-10-12T10:13:33.293Z,14.47
2018-10-12T10:18:16.160Z,11.83
2018-10-12T10:23:00.214Z,14.20
2018-10-12T10:27:43.143Z,12.50
2018-10-12T10:32:26.967Z,13.90
2018-10-12T10:37:09.822Z,16.50
2018-10-12T10:41:52.769Z,12.00
2018-10-12T10:46:35.620Z,10.40
2018-10-12T10:51:22.144Z,11.10
2018-10-12T10:56:05.047Z,13.87
2018-10-12T11:00:48.986Z,9.20
2018-10-12T11:05:31.840Z,16.93
2018-10-12T11:10:18.278Z,10.87
2018-10-12T11:15:01.572Z,12.33
2018-10-12T11:19:45.585Z,13.73
2018-10-12T11:24:28.512Z,10.37
2018-10-12T11:29:13.393Z,12.27
2018-10-12T11:33:56.214Z,10.73
2018-10-12T11:38:39.139Z,15.43
2018-10-12T11:43:31.180Z,17.57
2018-10-12T11:48:14.064Z,12.43
2018-10-12T11:52:56.996Z,13.20
2018-10-12T11:57:39.890Z,14.37
2018-10-12T12:02:22.872Z,14.73
2018-10-12T12:07:06.477Z,11.77
2018-10-12T12:11:49.549Z,9.30
2018-10-12T12:16:32.407Z,15.87
2018-10-12T12:21:18.784Z,14.87
2018-10-12T12:26:01.677Z,11.83
2018-10-12T12:30:45.743Z,18.53
2018-10-12T12:35:29.264Z,13.60
2018-10-12T12:40:13.052Z,12.30
2018-10-12T12:44:56.017Z,11.73
2018-10-12T12:49:43.378Z,15.73
2018-10-12T12:54:26.695Z,14.77
2018-10-12T12:59:09.663Z,14.93
2018-10-12T13:03:52.488Z,14.90
2018-10-12T13:08:35.323Z,12.70
2018-10-12T13:13:18.989Z,9.73
2018-10-12T13:18:01.868Z,11.93
2018-10-12T13:22:46.855Z,12.63
2018-10-12T13:27:29.700Z,14.47
2018-10-12T13:32:14.797Z,14.80
2018-10-12T13:36:57.778Z,14.07
2018-10-12T13:41:40.712Z,11.90
2018-10-12T13:46:23.636Z,13.67
2018-10-12T13:51:07.882Z,8.33
2018-10-12T13:55:50.802Z,10.87
2018-10-12T14:00:35.915Z,9.43
2018-10-12T14:05:19.826Z,10.83
2018-10-12T14:10:06.020Z,12.07
2018-10-12T14:14:48.901Z,10.73
2018-10-12T14:19:33.033Z,12.33
2018-10-12T14:24:15.834Z,8.23
2018-10-12T14:28:59.770Z,7.73
2018-10-12T14:33:42.643Z,8.23
2018-10-12T14:38:28.660Z,8.13
2018-10-12T14:43:11.591Z,9.20
2018-10-12T14:47:54.429Z,9.27
2018-10-12T14:52:38.247Z,10.20
2018-10-12T14:57:21.126Z,13.30
2018-10-12T15:02:05.882Z,11.13
2018-10-12T15:06:49.483Z,16.97
2018-10-12T15:11:34.560Z,11.70
2018-10-12T15:16:17.416Z,19.90
2018-10-12T15:21:03.844Z,14.17
2018-10-12T15:25:46.771Z,16.20
2018-10-12T15:30:31.997Z,14.93
2018-10-12T15:35:14.861Z,12.27
2018-10-12T15:40:00.378Z,13.43
2018-10-12T15:44:43.291Z,16.10
2018-10-12T15:49:26.878Z,17.13
2018-10-12T15:54:09.819Z,11.20
2018-10-12T15:58:56.746Z,13.33
2018-10-12T16:03:40.699Z,19.20
2018-10-12T16:08:24.557Z,18.60
2018-10-12T16:13:08.279Z,12.53
2018-10-12T16:17:51.160Z,12.50
2018-10-12T16:22:35.244Z,11.90
2018-10-12T16:27:18.099Z,12.23
2018-10-12T16:32:03.188Z,13.33
2018-10-12T16:36:46.124Z,16.90
2018-10-12T16:41:29.217Z,18.97
2018-10-12T16:46:12.122Z,19.10
2018-10-12T16:50:56.271Z,22.57
2018-10-12T16:55:39.842Z,14.00
2018-10-12T17:09:23.735Z,13.53
2018-10-12T17:14:14.861Z,18.07
2018-10-12T17:23:53.515Z,19.20
2018-10-12T17:28:36.518Z,20.33
2018-10-12T17:33:19.413Z,16.97
2018-10-12T17:38:04.678Z,18.03
2018-10-12T17:42:47.662Z,17.67
2018-10-12T17:47:30.555Z,23.80
2018-10-12T17:52:14.760Z,25.27
2018-10-12T17:56:57.740Z,20.00
2018-10-12T18:01:40.764Z,20.20
2018-10-12T18:06:24.208Z,20.40
2018-10-12T18:11:08.004Z,18.33
2018-10-12T18:15:51.052Z,14.50
2018-10-12T18:20:34.477Z,21.50
2018-10-12T18:25:17.397Z,16.67
2018-10-12T18:30:00.397Z,23.23
2018-10-12T18:34:44.310Z,21.03
2018-10-12T18:39:28.263Z,21.10
2018-10-12T18:44:11.172Z,24.47
2018-10-12T18:48:54.216Z,22.67
2018-10-12T18:53:37.137Z,24.43
2018-10-12T18:58:23.753Z,26.60
2018-10-12T19:03:07.129Z,23.97
2018-10-12T19:07:50.116Z,19.27
2018-10-12T19:12:32.995Z,23.40
2018-10-12T19:17:15.902Z,22.20
2018-10-12T19:22:00.036Z,26.70
2018-10-12T19:26:42.999Z,24.53
2018-10-12T19:31:27.152Z,22.30
2018-10-12T19:36:10.017Z,18.30
2018-10-12T19:40:54.170Z,17.90
2018-10-12T19:45:37.135Z,21.10
2018-10-12T19:50:21.164Z,21.87
2018-10-12T19:55:04.149Z,23.17
2018-10-12T19:59:47.161Z,24.03
2018-10-12T20:04:30.041Z,19.07
2018-10-12T20:09:12.939Z,21.77
2018-10-12T20:13:55.817Z,18.40
2018-10-12T20:18:38.736Z,23.43
2018-10-12T20:23:21.607Z,20.67
2018-10-12T20:28:08.376Z,18.10
2018-10-12T20:32:51.242Z,24.00
2018-10-12T20:37:34.339Z,18.67
2018-10-12T20:42:17.231Z,21.03
2018-10-12T20:47:00.120Z,18.10
2018-10-12T20:51:44.018Z,17.87
2018-10-12T20:56:27.266Z,18.53
2018-10-12T21:01:11.312Z,22.97
2018-10-12T21:05:54.208Z,18.53
2018-10-12T21:10:37.362Z,17.83
2018-10-12T21:15:20.242Z,25.10
2018-10-12T21:20:04.596Z,22.93
2018-10-12T21:24:47.907Z,19.87
2018-10-12T21:29:30.874Z,21.97
2018-10-12T21:34:13.748Z,19.90
2018-10-12T21:38:56.675Z,18.03
2018-10-12T21:43:39.548Z,18.40
2018-10-12T21:48:22.464Z,19.97
2018-10-12T21:53:05.357Z,18.27
2018-10-12T21:57:50.259Z,19.23
2018-10-12T22:02:33.090Z,21.47
2018-10-12T22:07:22.021Z,21.23
2018-10-12T22:12:04.843Z,18.67
2018-10-12T22:16:48.306Z,20.80
2018-10-12T22:21:32.343Z,20.90
2018-10-12T22:26:15.283Z,18.77
2018-10-12T22:30:59.415Z,23.17
2018-10-12T22:35:42.265Z,20.30
2018-10-12T22:40:26.167Z,21.83
2018-10-12T22:45:09.036Z,23.07
2018-10-12T22:49:51.952Z,17.77
2018-10-12T22:54:34.786Z,17.00
2018-10-12T22:59:18.764Z,24.40
2018-10-12T23:04:01.644Z,17.27
2018-10-12T23:08:44.737Z,23.00
2018-10-12T23:13:27.610Z,32.67
2018-10-12T23:18:10.524Z,23.10
2018-10-12T23:22:53.433Z,19.43
2018-10-12T23:27:36.512Z,22.20
2018-10-12T23:32:19.350Z,20.53
2018-10-12T23:37:02.361Z,22.13
2018-10-12T23:41:45.422Z,21.73
2018-10-12T23:46:28.242Z,21.27
2018-10-12T23:51:11.372Z,16.13
2018-10-12T23:55:54.258Z,24.53
